sensor_id;sensor_type;location;lat;lon;timestamp;temperature;humidity
20574;DHT22;10445;50.216;7.912;2024-03-25T00:00:15;4.20;50.10
20574;DHT22;10445;50.216;7.912;2024-03-25T00:02:42;4.20;51.50
20574;DHT22;10445;50.216;7.912;2024-03-25T00:05:09;4.10;52.20
20574;DHT22;10445;50.216;7.912;2024-03-25T00:07:37;4.00;53.60
20574;DHT22;10445;50.216;7.912;2024-03-25T00:10:06;4.00;53.10
20574;DHT22;10445;50.216;7.912;2024-03-25T00:12:34;4.00;53.50
20574;DHT22;10445;50.216;7.912;2024-03-25T00:15:02;4.00;52.20
20574;DHT22;10445;50.216;7.912;2024-03-25T00:17:29;4.10;51.60
20574;DHT22;10445;50.216;7.912;2024-03-25T00:19:56;4.10;50.80
20574;DHT22;10445;50.216;7.912;2024-03-25T00:22:23;4.00;51.00
20574;DHT22;10445;50.216;7.912;2024-03-25T00:24:52;4.00;51.00
20574;DHT22;10445;50.216;7.912;2024-03-25T00:27:20;3.90;52.20
20574;DHT22;10445;50.216;7.912;2024-03-25T00:29:48;3.90;53.20
20574;DHT22;10445;50.216;7.912;2024-03-25T00:32:14;3.80;53.50
20574;DHT22;10445;50.216;7.912;2024-03-25T00:34:42;3.80;54.40
20574;DHT22;10445;50.216;7.912;2024-03-25T00:37:11;3.80;55.10
20574;DHT22;10445;50.216;7.912;2024-03-25T00:39:38;3.80;56.20
20574;DHT22;10445;50.216;7.912;2024-03-25T00:42:05;3.80;56.70
20574;DHT22;10445;50.216;7.912;2024-03-25T00:44:34;3.80;57.70
20574;DHT22;10445;50.216;7.912;2024-03-25T00:47:00;3.80;57.20
20574;DHT22;10445;50.216;7.912;2024-03-25T00:49:28;3.80;58.30
20574;DHT22;10445;50.216;7.912;2024-03-25T00:51:55;3.80;58.90
20574;DHT22;10445;50.216;7.912;2024-03-25T00:54:22;3.90;59.40
20574;DHT22;10445;50.216;7.912;2024-03-25T00:56:49;3.90;59.00
20574;DHT22;10445;50.216;7.912;2024-03-25T00:59:17;3.90;59.00
20574;DHT22;10445;50.216;7.912;2024-03-25T01:01:45;3.90;59.60
20574;DHT22;10445;50.216;7.912;2024-03-25T01:04:12;3.90;59.30
20574;DHT22;10445;50.216;7.912;2024-03-25T01:06:39;3.80;59.10
20574;DHT22;10445;50.216;7.912;2024-03-25T01:09:06;3.80;59.00
20574;DHT22;10445;50.216;7.912;2024-03-25T01:11:33;3.80;59.30
20574;DHT22;10445;50.216;7.912;2024-03-25T01:14:01;3.80;60.20
20574;DHT22;10445;50.216;7.912;2024-03-25T01:16:27;3.80;59.80
20574;DHT22;10445;50.216;7.912;2024-03-25T01:18:56;3.80;59.30
20574;DHT22;10445;50.216;7.912;2024-03-25T01:21:24;3.80;60.10
20574;DHT22;10445;50.216;7.912;2024-03-25T01:23:51;3.80;60.40
20574;DHT22;10445;50.216;7.912;2024-03-25T01:26:18;3.80;62.20
20574;DHT22;10445;50.216;7.912;2024-03-25T01:28:45;3.70;63.40
20574;DHT22;10445;50.216;7.912;2024-03-25T01:31:11;3.70;63.70
20574;DHT22;10445;50.216;7.912;2024-03-25T01:33:39;3.70;64.10
20574;DHT22;10445;50.216;7.912;2024-03-25T01:36:07;3.70;64.30
20574;DHT22;10445;50.216;7.912;2024-03-25T01:38:37;3.70;64.10
20574;DHT22;10445;50.216;7.912;2024-03-25T01:41:07;3.70;63.00
20574;DHT22;10445;50.216;7.912;2024-03-25T01:43:35;3.80;63.00
20574;DHT22;10445;50.216;7.912;2024-03-25T01:46:01;3.80;63.20
20574;DHT22;10445;50.216;7.912;2024-03-25T01:48:29;3.70;62.40
20574;DHT22;10445;50.216;7.912;2024-03-25T01:50:56;3.60;62.80
20574;DHT22;10445;50.216;7.912;2024-03-25T01:53:26;3.60;63.40
20574;DHT22;10445;50.216;7.912;2024-03-25T01:55:55;3.50;64.60
20574;DHT22;10445;50.216;7.912;2024-03-25T01:58:25;3.50;65.50
20574;DHT22;10445;50.216;7.912;2024-03-25T02:00:52;3.50;65.50
20574;DHT22;10445;50.216;7.912;2024-03-25T02:03:20;3.40;65.60
20574;DHT22;10445;50.216;7.912;2024-03-25T02:05:51;3.40;66.60
20574;DHT22;10445;50.216;7.912;2024-03-25T02:08:20;3.40;66.10
20574;DHT22;10445;50.216;7.912;2024-03-25T02:10:48;3.40;65.70
20574;DHT22;10445;50.216;7.912;2024-03-25T02:13:16;3.40;65.40
20574;DHT22;10445;50.216;7.912;2024-03-25T02:15:43;3.40;65.00
20574;DHT22;10445;50.216;7.912;2024-03-25T02:18:10;3.40;65.50
20574;DHT22;10445;50.216;7.912;2024-03-25T02:20:37;3.30;67.10
20574;DHT22;10445;50.216;7.912;2024-03-25T02:23:04;3.40;68.50
20574;DHT22;10445;50.216;7.912;2024-03-25T02:25:33;3.40;68.70
20574;DHT22;10445;50.216;7.912;2024-03-25T02:28:02;3.30;68.60
20574;DHT22;10445;50.216;7.912;2024-03-25T02:30:28;3.30;69.30
20574;DHT22;10445;50.216;7.912;2024-03-25T02:32:56;3.40;69.10
20574;DHT22;10445;50.216;7.912;2024-03-25T02:35:23;3.40;67.80
20574;DHT22;10445;50.216;7.912;2024-03-25T02:37:53;3.40;66.00
20574;DHT22;10445;50.216;7.912;2024-03-25T02:40:20;3.40;65.00
20574;DHT22;10445;50.216;7.912;2024-03-25T02:42:49;3.30;64.20
20574;DHT22;10445;50.216;7.912;2024-03-25T02:45:17;3.30;65.00
20574;DHT22;10445;50.216;7.912;2024-03-25T02:47:46;3.40;66.80
20574;DHT22;10445;50.216;7.912;2024-03-25T02:50:12;3.30;66.60
20574;DHT22;10445;50.216;7.912;2024-03-25T02:52:40;3.40;64.90
20574;DHT22;10445;50.216;7.912;2024-03-25T02:55:06;3.40;64.40
20574;DHT22;10445;50.216;7.912;2024-03-25T02:57:34;3.40;65.00
20574;DHT22;10445;50.216;7.912;2024-03-25T03:00:00;3.40;65.80
20574;DHT22;10445;50.216;7.912;2024-03-25T03:02:29;3.40;66.50
20574;DHT22;10445;50.216;7.912;2024-03-25T03:04:56;3.40;66.40
20574;DHT22;10445;50.216;7.912;2024-03-25T03:07:23;3.40;67.00
20574;DHT22;10445;50.216;7.912;2024-03-25T03:09:49;3.40;67.20
20574;DHT22;10445;50.216;7.912;2024-03-25T03:12:17;3.40;67.90
20574;DHT22;10445;50.216;7.912;2024-03-25T03:14:43;3.40;67.60
20574;DHT22;10445;50.216;7.912;2024-03-25T03:17:11;3.40;66.70
20574;DHT22;10445;50.216;7.912;2024-03-25T03:19:38;3.40;65.50
20574;DHT22;10445;50.216;7.912;2024-03-25T03:22:06;3.30;64.70
20574;DHT22;10445;50.216;7.912;2024-03-25T03:24:32;3.30;64.40
20574;DHT22;10445;50.216;7.912;2024-03-25T03:27:00;3.40;64.00
20574;DHT22;10445;50.216;7.912;2024-03-25T03:29:27;3.30;64.30
20574;DHT22;10445;50.216;7.912;2024-03-25T03:31:54;3.40;64.10
20574;DHT22;10445;50.216;7.912;2024-03-25T03:34:20;3.40;63.10
20574;DHT22;10445;50.216;7.912;2024-03-25T03:36:49;3.30;61.10
20574;DHT22;10445;50.216;7.912;2024-03-25T03:39:16;3.30;61.20
20574;DHT22;10445;50.216;7.912;2024-03-25T03:41:43;3.30;60.60
20574;DHT22;10445;50.216;7.912;2024-03-25T03:44:10;3.30;62.30
20574;DHT22;10445;50.216;7.912;2024-03-25T03:46:38;3.30;62.70
20574;DHT22;10445;50.216;7.912;2024-03-25T03:49:04;3.30;64.00
20574;DHT22;10445;50.216;7.912;2024-03-25T03:51:32;3.30;64.80
20574;DHT22;10445;50.216;7.912;2024-03-25T03:54:00;3.30;65.80
20574;DHT22;10445;50.216;7.912;2024-03-25T03:56:27;3.30;66.60
20574;DHT22;10445;50.216;7.912;2024-03-25T03:58:53;3.30;65.30
20574;DHT22;10445;50.216;7.912;2024-03-25T04:01:21;3.20;65.60
20574;DHT22;10445;50.216;7.912;2024-03-25T04:03:47;3.20;66.10
20574;DHT22;10445;50.216;7.912;2024-03-25T04:06:16;3.10;67.60
20574;DHT22;10445;50.216;7.912;2024-03-25T04:08:42;3.10;68.70
20574;DHT22;10445;50.216;7.912;2024-03-25T04:11:11;3.00;69.80
20574;DHT22;10445;50.216;7.912;2024-03-25T04:13:37;2.90;70.40
20574;DHT22;10445;50.216;7.912;2024-03-25T04:16:06;2.90;71.10
20574;DHT22;10445;50.216;7.912;2024-03-25T04:18:33;2.70;71.90
20574;DHT22;10445;50.216;7.912;2024-03-25T04:21:00;2.70;72.60
20574;DHT22;10445;50.216;7.912;2024-03-25T04:23:27;2.60;73.40
20574;DHT22;10445;50.216;7.912;2024-03-25T04:25:54;2.50;75.20
20574;DHT22;10445;50.216;7.912;2024-03-25T04:28:22;2.40;76.70
20574;DHT22;10445;50.216;7.912;2024-03-25T04:30:53;2.30;77.60
20574;DHT22;10445;50.216;7.912;2024-03-25T04:33:20;2.20;78.80
20574;DHT22;10445;50.216;7.912;2024-03-25T04:35:47;2.20;79.90
20574;DHT22;10445;50.216;7.912;2024-03-25T04:38:16;2.10;80.80
20574;DHT22;10445;50.216;7.912;2024-03-25T04:40:42;2.10;82.00
20574;DHT22;10445;50.216;7.912;2024-03-25T04:43:09;2.00;83.00
20574;DHT22;10445;50.216;7.912;2024-03-25T04:45:37;2.00;83.60
20574;DHT22;10445;50.216;7.912;2024-03-25T04:48:04;1.90;84.10
20574;DHT22;10445;50.216;7.912;2024-03-25T04:50:31;1.90;84.50
20574;DHT22;10445;50.216;7.912;2024-03-25T04:52:57;1.90;85.40
20574;DHT22;10445;50.216;7.912;2024-03-25T04:55:24;1.90;85.50
20574;DHT22;10445;50.216;7.912;2024-03-25T04:57:50;1.80;85.50
20574;DHT22;10445;50.216;7.912;2024-03-25T05:00:18;1.80;86.00
20574;DHT22;10445;50.216;7.912;2024-03-25T05:02:46;1.80;86.30
20574;DHT22;10445;50.216;7.912;2024-03-25T05:05:12;1.70;87.10
20574;DHT22;10445;50.216;7.912;2024-03-25T05:07:39;1.70;87.50
20574;DHT22;10445;50.216;7.912;2024-03-25T05:10:06;1.70;87.90
20574;DHT22;10445;50.216;7.912;2024-03-25T05:12:32;1.70;88.30
20574;DHT22;10445;50.216;7.912;2024-03-25T05:14:59;1.60;88.50
20574;DHT22;10445;50.216;7.912;2024-03-25T05:17:25;1.60;88.40
20574;DHT22;10445;50.216;7.912;2024-03-25T05:19:53;1.60;88.30
20574;DHT22;10445;50.216;7.912;2024-03-25T05:22:19;1.60;88.20
20574;DHT22;10445;50.216;7.912;2024-03-25T05:24:46;1.60;87.70
20574;DHT22;10445;50.216;7.912;2024-03-25T05:27:15;1.50;87.90
20574;DHT22;10445;50.216;7.912;2024-03-25T05:29:41;1.50;88.30
20574;DHT22;10445;50.216;7.912;2024-03-25T05:32:08;1.60;88.20
20574;DHT22;10445;50.216;7.912;2024-03-25T05:34:34;1.50;88.10
20574;DHT22;10445;50.216;7.912;2024-03-25T05:37:02;1.50;88.90
20574;DHT22;10445;50.216;7.912;2024-03-25T05:39:28;1.60;89.40
20574;DHT22;10445;50.216;7.912;2024-03-25T05:41:55;1.50;89.50
20574;DHT22;10445;50.216;7.912;2024-03-25T05:44:21;1.60;89.50
20574;DHT22;10445;50.216;7.912;2024-03-25T05:46:48;1.60;90.20
20574;DHT22;10445;50.216;7.912;2024-03-25T05:49:14;1.70;90.50
20574;DHT22;10445;50.216;7.912;2024-03-25T05:51:40;1.80;90.20
20574;DHT22;10445;50.216;7.912;2024-03-25T05:54:08;1.80;89.60
20574;DHT22;10445;50.216;7.912;2024-03-25T05:56:35;2.00;89.60
20574;DHT22;10445;50.216;7.912;2024-03-25T05:59:01;2.00;89.30
20574;DHT22;10445;50.216;7.912;2024-03-25T06:01:28;2.10;88.90
20574;DHT22;10445;50.216;7.912;2024-03-25T06:03:54;2.40;90.20
20574;DHT22;10445;50.216;7.912;2024-03-25T06:06:20;2.80;90.30
20574;DHT22;10445;50.216;7.912;2024-03-25T06:08:47;3.30;84.20
20574;DHT22;10445;50.216;7.912;2024-03-25T06:11:15;3.70;74.30
20574;DHT22;10445;50.216;7.912;2024-03-25T06:13:41;4.30;68.50
20574;DHT22;10445;50.216;7.912;2024-03-25T06:16:08;4.80;58.90
20574;DHT22;10445;50.216;7.912;2024-03-25T06:18:34;5.50;43.60
20574;DHT22;10445;50.216;7.912;2024-03-25T06:21:00;6.10;39.10
20574;DHT22;10445;50.216;7.912;2024-03-25T06:23:28;6.70;25.80
20574;DHT22;10445;50.216;7.912;2024-03-25T06:25:55;7.30;14.70
20574;DHT22;10445;50.216;7.912;2024-03-25T06:28:23;7.80;6.50
20574;DHT22;10445;50.216;7.912;2024-03-25T06:30:50;8.00;1.00
20574;DHT22;10445;50.216;7.912;2024-03-25T06:33:36;8.30;1.00
20574;DHT22;10445;50.216;7.912;2024-03-25T06:36:21;8.50;1.00
20574;DHT22;10445;50.216;7.912;2024-03-25T06:38:48;8.80;1.00
20574;DHT22;10445;50.216;7.912;2024-03-25T06:41:15;9.00;1.00
20574;DHT22;10445;50.216;7.912;2024-03-25T06:43:42;9.40;1.00
20574;DHT22;10445;50.216;7.912;2024-03-25T06:46:09;9.70;1.00
20574;DHT22;10445;50.216;7.912;2024-03-25T06:48:35;9.80;1.00
20574;DHT22;10445;50.216;7.912;2024-03-25T06:51:04;9.70;1.00
20574;DHT22;10445;50.216;7.912;2024-03-25T06:53:31;9.70;1.00
20574;DHT22;10445;50.216;7.912;2024-03-25T06:55:58;9.90;1.00
20574;DHT22;10445;50.216;7.912;2024-03-25T06:58:26;9.90;1.00
20574;DHT22;10445;50.216;7.912;2024-03-25T07:00:55;9.80;1.00
20574;DHT22;10445;50.216;7.912;2024-03-25T07:03:23;9.60;1.00
20574;DHT22;10445;50.216;7.912;2024-03-25T07:05:50;9.50;1.00
20574;DHT22;10445;50.216;7.912;2024-03-25T07:08:17;9.60;1.00
20574;DHT22;10445;50.216;7.912;2024-03-25T07:10:44;9.90;1.00
20574;DHT22;10445;50.216;7.912;2024-03-25T07:13:11;9.90;1.00
20574;DHT22;10445;50.216;7.912;2024-03-25T07:15:38;9.70;1.00
20574;DHT22;10445;50.216;7.912;2024-03-25T07:18:06;10.30;1.00
20574;DHT22;10445;50.216;7.912;2024-03-25T07:20:32;10.20;1.00
20574;DHT22;10445;50.216;7.912;2024-03-25T07:22:59;9.50;1.00
20574;DHT22;10445;50.216;7.912;2024-03-25T07:25:26;9.20;1.00
20574;DHT22;10445;50.216;7.912;2024-03-25T07:27:52;9.30;1.00
20574;DHT22;10445;50.216;7.912;2024-03-25T07:30:19;9.70;1.00
20574;DHT22;10445;50.216;7.912;2024-03-25T07:32:45;10.30;1.00
20574;DHT22;10445;50.216;7.912;2024-03-25T07:35:13;10.80;1.00
20574;DHT22;10445;50.216;7.912;2024-03-25T07:37:40;10.90;1.00
20574;DHT22;10445;50.216;7.912;2024-03-25T07:40:07;10.90;1.00
20574;DHT22;10445;50.216;7.912;2024-03-25T07:42:35;10.80;1.00
20574;DHT22;10445;50.216;7.912;2024-03-25T07:45:02;10.80;1.00
20574;DHT22;10445;50.216;7.912;2024-03-25T07:47:28;10.30;1.00
20574;DHT22;10445;50.216;7.912;2024-03-25T07:49:55;10.20;1.00
20574;DHT22;10445;50.216;7.912;2024-03-25T07:52:23;9.90;1.00
20574;DHT22;10445;50.216;7.912;2024-03-25T07:54:49;10.20;1.00
20574;DHT22;10445;50.216;7.912;2024-03-25T07:57:15;10.40;1.00
20574;DHT22;10445;50.216;7.912;2024-03-25T07:59:42;10.40;1.00
20574;DHT22;10445;50.216;7.912;2024-03-25T08:02:08;10.60;1.00
20574;DHT22;10445;50.216;7.912;2024-03-25T08:04:35;10.60;1.00
20574;DHT22;10445;50.216;7.912;2024-03-25T08:07:01;10.70;1.00
20574;DHT22;10445;50.216;7.912;2024-03-25T08:09:29;11.10;1.00
20574;DHT22;10445;50.216;7.912;2024-03-25T08:11:56;11.30;1.00
20574;DHT22;10445;50.216;7.912;2024-03-25T08:14:22;11.30;1.00
20574;DHT22;10445;50.216;7.912;2024-03-25T08:16:49;11.50;1.00
20574;DHT22;10445;50.216;7.912;2024-03-25T08:19:15;11.60;1.00
20574;DHT22;10445;50.216;7.912;2024-03-25T08:21:42;12.10;1.00
20574;DHT22;10445;50.216;7.912;2024-03-25T08:24:08;12.70;1.00
20574;DHT22;10445;50.216;7.912;2024-03-25T08:26:36;13.10;1.00
20574;DHT22;10445;50.216;7.912;2024-03-25T08:29:03;12.10;1.00
20574;DHT22;10445;50.216;7.912;2024-03-25T08:31:30;11.50;1.00
20574;DHT22;10445;50.216;7.912;2024-03-25T08:33:56;11.60;1.00
20574;DHT22;10445;50.216;7.912;2024-03-25T08:36:23;12.00;1.00
20574;DHT22;10445;50.216;7.912;2024-03-25T08:38:49;11.80;1.00
20574;DHT22;10445;50.216;7.912;2024-03-25T08:41:16;11.90;1.00
20574;DHT22;10445;50.216;7.912;2024-03-25T08:43:44;11.70;1.00
20574;DHT22;10445;50.216;7.912;2024-03-25T08:46:10;11.10;1.00
20574;DHT22;10445;50.216;7.912;2024-03-25T08:48:37;10.90;1.00
20574;DHT22;10445;50.216;7.912;2024-03-25T08:51:03;11.00;1.00
20574;DHT22;10445;50.216;7.912;2024-03-25T08:53:30;11.10;1.00
20574;DHT22;10445;50.216;7.912;2024-03-25T08:55:56;11.00;1.00
20574;DHT22;10445;50.216;7.912;2024-03-25T08:58:23;11.00;1.00
20574;DHT22;10445;50.216;7.912;2024-03-25T09:00:51;11.20;1.00
20574;DHT22;10445;50.216;7.912;2024-03-25T09:03:17;11.50;1.00
20574;DHT22;10445;50.216;7.912;2024-03-25T09:05:43;11.60;1.00
20574;DHT22;10445;50.216;7.912;2024-03-25T09:08:10;11.60;1.00
20574;DHT22;10445;50.216;7.912;2024-03-25T09:10:36;12.00;1.00
20574;DHT22;10445;50.216;7.912;2024-03-25T09:13:21;12.20;1.00
20574;DHT22;10445;50.216;7.912;2024-03-25T09:15:49;12.40;1.00
20574;DHT22;10445;50.216;7.912;2024-03-25T09:18:16;12.70;1.00
20574;DHT22;10445;50.216;7.912;2024-03-25T09:20:42;12.40;1.00
20574;DHT22;10445;50.216;7.912;2024-03-25T09:23:09;12.40;1.00
20574;DHT22;10445;50.216;7.912;2024-03-25T09:25:35;12.10;1.00
20574;DHT22;10445;50.216;7.912;2024-03-25T09:28:02;12.20;1.00
20574;DHT22;10445;50.216;7.912;2024-03-25T09:30:28;11.90;1.00
20574;DHT22;10445;50.216;7.912;2024-03-25T09:32:56;11.50;1.00
20574;DHT22;10445;50.216;7.912;2024-03-25T09:35:22;11.50;1.00
20574;DHT22;10445;50.216;7.912;2024-03-25T09:37:49;11.60;1.00
20574;DHT22;10445;50.216;7.912;2024-03-25T09:40:15;11.80;1.00
20574;DHT22;10445;50.216;7.912;2024-03-25T09:42:46;12.30;1.00
20574;DHT22;10445;50.216;7.912;2024-03-25T09:45:15;12.70;1.00
20574;DHT22;10445;50.216;7.912;2024-03-25T09:47:45;13.00;1.00
20574;DHT22;10445;50.216;7.912;2024-03-25T09:50:13;13.00;1.00
20574;DHT22;10445;50.216;7.912;2024-03-25T09:52:40;13.50;1.00
20574;DHT22;10445;50.216;7.912;2024-03-25T09:55:07;14.20;1.00
20574;DHT22;10445;50.216;7.912;2024-03-25T09:57:35;14.10;1.00
20574;DHT22;10445;50.216;7.912;2024-03-25T10:00:04;13.90;1.00
20574;DHT22;10445;50.216;7.912;2024-03-25T10:02:40;13.80;1.00
20574;DHT22;10445;50.216;7.912;2024-03-25T10:05:07;14.00;1.00
20574;DHT22;10445;50.216;7.912;2024-03-25T10:07:35;13.60;1.00
20574;DHT22;10445;50.216;7.912;2024-03-25T10:10:04;13.40;1.00
20574;DHT22;10445;50.216;7.912;2024-03-25T10:12:30;14.00;1.00
20574;DHT22;10445;50.216;7.912;2024-03-25T10:14:57;14.20;1.00
20574;DHT22;10445;50.216;7.912;2024-03-25T10:17:23;14.30;1.00
20574;DHT22;10445;50.216;7.912;2024-03-25T10:19:50;14.30;1.00
20574;DHT22;10445;50.216;7.912;2024-03-25T10:22:16;14.30;1.00
20574;DHT22;10445;50.216;7.912;2024-03-25T10:24:45;14.50;1.00
20574;DHT22;10445;50.216;7.912;2024-03-25T10:27:20;14.10;1.00
20574;DHT22;10445;50.216;7.912;2024-03-25T10:29:46;13.50;1.00
20574;DHT22;10445;50.216;7.912;2024-03-25T10:32:13;13.20;1.00
20574;DHT22;10445;50.216;7.912;2024-03-25T10:34:40;13.00;1.00
20574;DHT22;10445;50.216;7.912;2024-03-25T10:37:09;12.60;1.00
20574;DHT22;10445;50.216;7.912;2024-03-25T10:39:39;12.30;1.00
20574;DHT22;10445;50.216;7.912;2024-03-25T10:42:08;12.10;1.00
20574;DHT22;10445;50.216;7.912;2024-03-25T10:44:36;12.00;1.00
20574;DHT22;10445;50.216;7.912;2024-03-25T10:47:03;11.90;1.00
20574;DHT22;10445;50.216;7.912;2024-03-25T10:49:41;11.60;1.00
20574;DHT22;10445;50.216;7.912;2024-03-25T10:52:11;11.30;1.00
20574;DHT22;10445;50.216;7.912;2024-03-25T10:54:39;11.00;1.00
20574;DHT22;10445;50.216;7.912;2024-03-25T10:57:09;10.60;1.00
20574;DHT22;10445;50.216;7.912;2024-03-25T10:59:37;10.50;1.00
20574;DHT22;10445;50.216;7.912;2024-03-25T11:02:04;10.40;1.00
20574;DHT22;10445;50.216;7.912;2024-03-25T11:04:31;10.50;1.00
20574;DHT22;10445;50.216;7.912;2024-03-25T11:07:07;10.70;1.00
20574;DHT22;10445;50.216;7.912;2024-03-25T11:09:33;10.80;1.00
20574;DHT22;10445;50.216;7.912;2024-03-25T11:12:00;10.60;1.00
20574;DHT22;10445;50.216;7.912;2024-03-25T11:14:28;10.30;1.00
20574;DHT22;10445;50.216;7.912;2024-03-25T11:16:55;10.20;1.00
20574;DHT22;10445;50.216;7.912;2024-03-25T11:19:26;10.30;1.00
20574;DHT22;10445;50.216;7.912;2024-03-25T11:21:53;10.10;1.00
20574;DHT22;10445;50.216;7.912;2024-03-25T11:24:27;9.90;1.00
20574;DHT22;10445;50.216;7.912;2024-03-25T11:26:53;9.50;1.00
20574;DHT22;10445;50.216;7.912;2024-03-25T11:29:20;9.50;1.00
20574;DHT22;10445;50.216;7.912;2024-03-25T11:31:49;9.60;1.00
20574;DHT22;10445;50.216;7.912;2024-03-25T11:34:18;9.60;1.00
20574;DHT22;10445;50.216;7.912;2024-03-25T11:36:45;9.50;1.00
20574;DHT22;10445;50.216;7.912;2024-03-25T11:39:12;9.60;1.00
20574;DHT22;10445;50.216;7.912;2024-03-25T11:41:39;9.70;1.00
20574;DHT22;10445;50.216;7.912;2024-03-25T11:44:07;10.00;1.00
20574;DHT22;10445;50.216;7.912;2024-03-25T11:46:36;10.30;1.00
20574;DHT22;10445;50.216;7.912;2024-03-25T11:49:05;10.10;1.00
20574;DHT22;10445;50.216;7.912;2024-03-25T11:51:33;10.30;1.00
20574;DHT22;10445;50.216;7.912;2024-03-25T11:54:03;10.70;1.00
20574;DHT22;10445;50.216;7.912;2024-03-25T11:56:30;10.80;1.00
20574;DHT22;10445;50.216;7.912;2024-03-25T11:58:56;11.00;1.00
20574;DHT22;10445;50.216;7.912;2024-03-25T12:01:23;11.10;1.00
20574;DHT22;10445;50.216;7.912;2024-03-25T12:03:50;11.10;1.00
20574;DHT22;10445;50.216;7.912;2024-03-25T12:06:18;10.60;1.00
20574;DHT22;10445;50.216;7.912;2024-03-25T12:08:44;10.70;1.00
20574;DHT22;10445;50.216;7.912;2024-03-25T12:11:11;10.80;1.00
20574;DHT22;10445;50.216;7.912;2024-03-25T12:13:44;11.10;1.00
20574;DHT22;10445;50.216;7.912;2024-03-25T12:16:11;11.30;1.00
20574;DHT22;10445;50.216;7.912;2024-03-25T12:18:40;11.40;1.00
20574;DHT22;10445;50.216;7.912;2024-03-25T12:21:07;11.40;1.00
20574;DHT22;10445;50.216;7.912;2024-03-25T12:23:36;11.60;1.00
20574;DHT22;10445;50.216;7.912;2024-03-25T12:26:04;11.50;1.00
20574;DHT22;10445;50.216;7.912;2024-03-25T12:28:31;11.20;1.00
20574;DHT22;10445;50.216;7.912;2024-03-25T12:30:58;10.90;1.00
20574;DHT22;10445;50.216;7.912;2024-03-25T12:33:24;10.80;1.00
20574;DHT22;10445;50.216;7.912;2024-03-25T12:35:52;10.80;1.00
20574;DHT22;10445;50.216;7.912;2024-03-25T12:38:23;11.00;1.00
20574;DHT22;10445;50.216;7.912;2024-03-25T12:40:51;11.50;1.00
20574;DHT22;10445;50.216;7.912;2024-03-25T12:43:18;12.40;1.00
20574;DHT22;10445;50.216;7.912;2024-03-25T12:45:44;13.30;1.00
20574;DHT22;10445;50.216;7.912;2024-03-25T12:48:11;13.80;1.00
20574;DHT22;10445;50.216;7.912;2024-03-25T12:50:38;13.50;1.00
20574;DHT22;10445;50.216;7.912;2024-03-25T12:53:04;13.10;1.00
20574;DHT22;10445;50.216;7.912;2024-03-25T12:55:30;13.00;1.00
20574;DHT22;10445;50.216;7.912;2024-03-25T12:57:58;12.50;1.00
20574;DHT22;10445;50.216;7.912;2024-03-25T13:00:25;12.40;1.00
20574;DHT22;10445;50.216;7.912;2024-03-25T13:02:52;12.60;1.00
20574;DHT22;10445;50.216;7.912;2024-03-25T13:05:18;12.80;1.00
20574;DHT22;10445;50.216;7.912;2024-03-25T13:07:44;13.40;1.00
20574;DHT22;10445;50.216;7.912;2024-03-25T13:10:11;13.70;1.00
20574;DHT22;10445;50.216;7.912;2024-03-25T13:12:37;14.00;1.00
20574;DHT22;10445;50.216;7.912;2024-03-25T13:15:07;14.00;1.00
20574;DHT22;10445;50.216;7.912;2024-03-25T13:17:33;13.90;1.00
20574;DHT22;10445;50.216;7.912;2024-03-25T13:20:00;13.90;1.00
20574;DHT22;10445;50.216;7.912;2024-03-25T13:22:26;14.00;1.00
20574;DHT22;10445;50.216;7.912;2024-03-25T13:24:53;14.20;1.00
20574;DHT22;10445;50.216;7.912;2024-03-25T13:27:19;15.40;1.00
20574;DHT22;10445;50.216;7.912;2024-03-25T13:29:45;16.50;1.00
20574;DHT22;10445;50.216;7.912;2024-03-25T13:32:13;16.80;1.00
20574;DHT22;10445;50.216;7.912;2024-03-25T13:34:40;18.10;1.00
20574;DHT22;10445;50.216;7.912;2024-03-25T13:37:06;18.60;1.00
20574;DHT22;10445;50.216;7.912;2024-03-25T13:39:33;18.50;1.00
20574;DHT22;10445;50.216;7.912;2024-03-25T13:41:59;17.80;1.00
20574;DHT22;10445;50.216;7.912;2024-03-25T13:44:27;15.80;1.00
20574;DHT22;10445;50.216;7.912;2024-03-25T13:46:53;15.00;1.00
20574;DHT22;10445;50.216;7.912;2024-03-25T13:49:21;14.40;1.00
20574;DHT22;10445;50.216;7.912;2024-03-25T13:51:48;13.80;1.00
20574;DHT22;10445;50.216;7.912;2024-03-25T13:54:14;14.40;1.00
20574;DHT22;10445;50.216;7.912;2024-03-25T13:56:41;14.90;1.00
20574;DHT22;10445;50.216;7.912;2024-03-25T13:59:07;15.20;1.00
20574;DHT22;10445;50.216;7.912;2024-03-25T14:01:33;15.70;1.00
20574;DHT22;10445;50.216;7.912;2024-03-25T14:04:00;16.20;1.00
20574;DHT22;10445;50.216;7.912;2024-03-25T14:06:28;16.50;1.00
20574;DHT22;10445;50.216;7.912;2024-03-25T14:08:54;16.50;1.00
20574;DHT22;10445;50.216;7.912;2024-03-25T14:11:21;16.60;1.00
20574;DHT22;10445;50.216;7.912;2024-03-25T14:13:47;16.20;1.00
20574;DHT22;10445;50.216;7.912;2024-03-25T14:16:14;14.80;1.00
20574;DHT22;10445;50.216;7.912;2024-03-25T14:18:40;13.70;1.00
20574;DHT22;10445;50.216;7.912;2024-03-25T14:21:07;12.70;1.00
20574;DHT22;10445;50.216;7.912;2024-03-25T14:23:35;11.90;1.00
20574;DHT22;10445;50.216;7.912;2024-03-25T14:26:01;12.00;1.00
20574;DHT22;10445;50.216;7.912;2024-03-25T14:28:28;11.60;1.00
20574;DHT22;10445;50.216;7.912;2024-03-25T14:30:54;11.10;1.00
20574;DHT22;10445;50.216;7.912;2024-03-25T14:33:20;12.00;1.00
20574;DHT22;10445;50.216;7.912;2024-03-25T14:35:47;13.00;1.00
20574;DHT22;10445;50.216;7.912;2024-03-25T14:38:14;13.90;1.00
20574;DHT22;10445;50.216;7.912;2024-03-25T14:40:42;12.90;1.00
20574;DHT22;10445;50.216;7.912;2024-03-25T14:43:09;11.40;1.00
20574;DHT22;10445;50.216;7.912;2024-03-25T14:45:35;10.80;1.00
20574;DHT22;10445;50.216;7.912;2024-03-25T14:48:01;11.30;1.00
20574;DHT22;10445;50.216;7.912;2024-03-25T14:50:28;11.30;1.00
20574;DHT22;10445;50.216;7.912;2024-03-25T14:52:55;11.10;1.00
20574;DHT22;10445;50.216;7.912;2024-03-25T14:55:21;10.90;1.00
20574;DHT22;10445;50.216;7.912;2024-03-25T14:57:49;10.80;1.00
20574;DHT22;10445;50.216;7.912;2024-03-25T15:00:16;11.50;1.00
20574;DHT22;10445;50.216;7.912;2024-03-25T15:02:42;13.10;1.00
20574;DHT22;10445;50.216;7.912;2024-03-25T15:05:09;13.80;1.00
20574;DHT22;10445;50.216;7.912;2024-03-25T15:07:35;13.70;1.00
20574;DHT22;10445;50.216;7.912;2024-03-25T15:10:01;12.50;1.00
20574;DHT22;10445;50.216;7.912;2024-03-25T15:12:28;10.90;1.00
20574;DHT22;10445;50.216;7.912;2024-03-25T15:14:56;10.20;1.00
20574;DHT22;10445;50.216;7.912;2024-03-25T15:17:22;9.90;1.00
20574;DHT22;10445;50.216;7.912;2024-03-25T15:19:49;9.70;1.00
20574;DHT22;10445;50.216;7.912;2024-03-25T15:22:15;9.60;1.00
20574;DHT22;10445;50.216;7.912;2024-03-25T15:24:41;9.50;1.00
20574;DHT22;10445;50.216;7.912;2024-03-25T15:27:08;9.50;1.00
20574;DHT22;10445;50.216;7.912;2024-03-25T15:29:34;9.50;1.00
20574;DHT22;10445;50.216;7.912;2024-03-25T15:32:02;9.40;1.00
20574;DHT22;10445;50.216;7.912;2024-03-25T15:34:29;9.30;1.00
20574;DHT22;10445;50.216;7.912;2024-03-25T15:36:55;9.20;1.00
20574;DHT22;10445;50.216;7.912;2024-03-25T15:39:22;9.20;1.00
20574;DHT22;10445;50.216;7.912;2024-03-25T15:41:48;9.10;1.00
20574;DHT22;10445;50.216;7.912;2024-03-25T15:44:15;9.00;1.00
20574;DHT22;10445;50.216;7.912;2024-03-25T15:46:42;9.00;1.00